Gaoyi, China
Current Conditions -  °F | °C
As of 4:00 PM on Tuesday 21 Oct 2014 (Local Time) from ZBSJ Reporting Station
Overcast Overcast  
Wind Chill: 59°   Ceiling: 4600
Heat Index: 59°   Visibility: 6mi
Dew Point: 45°   Wind: 4mph
Humidity: 59%   Direction: 50°NE
Pressure: 30.21"   Gusts: NA
Location:  37.6°N, 114.6°E
Report Text: ZBSJ 210800Z 05002MPS 9999 OVC046 15/07 Q1023 NOSIG
Loading
Personal Weather Stations






























Interactive Weather Map
Tropical Storm Tracking
New forecast layout! Learn more

10-Day Weather Forecast

Advertisements
Track Severe Weather on mobile